Calanus - UK — GBJK — position and weather

sailwx.info

Track history (hours):
 
Tides and Currents Weather Stations Pressure Air Temp Water Temp Dewpoint Dewpoint Depression Visibility Wind Speed Wind Dir Waves Ship Positions

Oceanographic research ship Calanus - UK (UK)

Detailed information on ship capabilities available from University of Delaware's Ocean Information Center.

Last reported at 2017-Nov-16 15:57 UTC. Time now 2017-Nov-18 09:53 UTC.
Position N 56°27' W 005°26'.

Length 19 m.

Type: Dredging. MMSI: 235050871.

Date/timePositionNaut miles runAvg speedWind from/ knotsBaromVisibWave heightAir tempDewpointWater temp
2017-Nov-16 15:57N 56°27' W 005°26'0 0.0
2017-Nov-16 15:30N 56°27' W 005°26'0 0.0
2017-Nov-16 14:57N 56°27' W 005°26'0 0.0
2017-Nov-16 14:30N 56°27' W 005°26'0 0.0
2017-Nov-16 14:00N 56°27' W 005°26'0 0.0
2017-Nov-16 13:30N 56°27' W 005°26'0 0.0
2017-Nov-16 13:00N 56°27' W 005°26'0 0.0
2017-Nov-16 12:30N 56°27' W 005°26'0 0.0
2017-Nov-16 11:57N 56°27' W 005°26'0 0.0
2017-Nov-16 11:27N 56°27' W 005°26'0 0.0
2017-Nov-16 11:00N 56°27' W 005°26'0 0.0
2017-Nov-16 10:27N 56°27' W 005°26'  
2017-Nov-10 16:56N 56°27' W 005°26'2 5.8
2017-Nov-10 16:30N 56°27' W 005°31'4 6.5
2017-Nov-10 15:57N 56°28' W 005°37'4 8.3
2017-Nov-10 15:30N 56°32' W 005°34'0 0.5
2017-Nov-10 14:55N 56°32' W 005°33'0 0.0
2017-Nov-10 14:16N 56°32' W 005°33'0 0.0
2017-Nov-10 13:16N 56°32' W 005°33'0 0.0
2017-Nov-10 12:43N 56°32' W 005°33'2 1.9
2017-Nov-10 11:36N 56°30' W 005°36'3 6.6
2017-Nov-10 11:08N 56°27' W 005°37'1 6.1
2017-Nov-10 11:00N 56°27' W 005°35'3 7.0
2017-Nov-10 10:30N 56°28' W 005°29'2 3.6
2017-Nov-10 09:58N 56°27' W 005°26'0 0.0
2017-Nov-10 09:28N 56°27' W 005°26'  
Track history (hours):
 
Tides and Currents Weather Stations Pressure Air Temp Water Temp Dewpoint Dewpoint Depression Visibility Wind Speed Wind Dir Waves Ship Positions

Oceanographic research ship Calanus - UK (UK)

Detailed information on ship capabilities available from University of Delaware's Ocean Information Center.

Last reported at 2017-Nov-16 15:57 UTC. Time now 2017-Nov-18 09:53 UTC.
Position N 56°27' W 005°26'.

Length 19 m.

Type: Dredging. MMSI: 235050871.

Date/timePositionNaut miles runAvg speedWind from/ knotsBaromVisibWave heightAir tempDewpointWater temp
2017-Nov-16 15:57N 56°27' W 005°26'0 0.0
2017-Nov-16 15:30N 56°27' W 005°26'0 0.0
2017-Nov-16 14:57N 56°27' W 005°26'0 0.0
2017-Nov-16 14:30N 56°27' W 005°26'0 0.0
2017-Nov-16 14:00N 56°27' W 005°26'0 0.0
2017-Nov-16 13:30N 56°27' W 005°26'0 0.0
2017-Nov-16 13:00N 56°27' W 005°26'0 0.0
2017-Nov-16 12:30N 56°27' W 005°26'0 0.0
2017-Nov-16 11:57N 56°27' W 005°26'0 0.0
2017-Nov-16 11:27N 56°27' W 005°26'0 0.0
2017-Nov-16 11:00N 56°27' W 005°26'0 0.0
2017-Nov-16 10:27N 56°27' W 005°26'  
2017-Nov-10 16:56N 56°27' W 005°26'2 5.8
2017-Nov-10 16:30N 56°27' W 005°31'4 6.5
2017-Nov-10 15:57N 56°28' W 005°37'4 8.3
2017-Nov-10 15:30N 56°32' W 005°34'0 0.5
2017-Nov-10 14:55N 56°32' W 005°33'0 0.0
2017-Nov-10 14:16N 56°32' W 005°33'0 0.0
2017-Nov-10 13:16N 56°32' W 005°33'0 0.0
2017-Nov-10 12:43N 56°32' W 005°33'2 1.9
2017-Nov-10 11:36N 56°30' W 005°36'3 6.6
2017-Nov-10 11:08N 56°27' W 005°37'1 6.1
2017-Nov-10 11:00N 56°27' W 005°35'3 7.0
2017-Nov-10 10:30N 56°28' W 005°29'2 3.6
2017-Nov-10 09:58N 56°27' W 005°26'0 0.0
2017-Nov-10 09:28N 56°27' W 005°26'  

Dump ship's entire track history